createdAt,value
2023-01-17T00:00:37.547Z,974.84
2023-01-17T00:01:37.547Z,974.80
2023-01-17T00:02:37.565Z,974.82
2023-01-17T00:03:37.767Z,974.79
2023-01-17T00:04:37.872Z,974.78
2023-01-17T00:05:37.465Z,974.77
2023-01-17T00:06:37.400Z,974.78
2023-01-17T00:07:37.363Z,974.77
2023-01-17T00:08:38.813Z,974.71
2023-01-17T00:09:37.404Z,974.75
2023-01-17T00:10:37.408Z,974.71
2023-01-17T00:11:37.311Z,974.74
2023-01-17T00:12:37.215Z,974.78
2023-01-17T00:13:37.217Z,974.78
2023-01-17T00:14:37.312Z,974.77
2023-01-17T00:15:37.413Z,974.77
2023-01-17T00:16:37.242Z,974.74
2023-01-17T00:17:37.249Z,974.68
2023-01-17T00:18:37.146Z,974.73
2023-01-17T00:19:37.148Z,974.71
2023-01-17T00:20:37.130Z,974.79
2023-01-17T00:21:37.285Z,974.75
2023-01-17T00:22:37.263Z,974.74
2023-01-17T00:23:37.264Z,974.72
2023-01-17T00:24:37.456Z,974.77
2023-01-17T00:25:37.101Z,974.74
2023-01-17T00:26:37.306Z,974.71
2023-01-17T00:27:37.108Z,974.70
2023-01-17T00:28:37.109Z,974.70
2023-01-17T00:29:37.114Z,974.74
2023-01-17T00:30:37.036Z,974.72
2023-01-17T00:31:37.039Z,974.66
2023-01-17T00:32:36.954Z,974.68
2023-01-17T00:33:37.042Z,974.70
2023-01-17T00:34:37.043Z,974.65
2023-01-17T00:35:37.493Z,974.69
2023-01-17T00:36:37.128Z,974.68
2023-01-17T00:37:36.988Z,974.71
2023-01-17T00:38:36.994Z,974.64
2023-01-17T00:39:37.000Z,974.70
2023-01-17T00:40:36.891Z,974.67
2023-01-17T00:41:36.795Z,974.72
2023-01-17T00:42:36.900Z,974.69
2023-01-17T00:43:36.924Z,974.70
2023-01-17T00:44:37.008Z,974.70
2023-01-17T00:45:36.932Z,974.65
2023-01-17T00:46:36.887Z,974.70
2023-01-17T00:47:36.754Z,974.68
2023-01-17T00:48:36.745Z,974.67
2023-01-17T00:49:37.350Z,974.66
2023-01-17T00:50:36.754Z,974.63
2023-01-17T00:51:36.860Z,974.59
2023-01-17T00:52:36.767Z,974.58
2023-01-17T00:53:36.678Z,974.56
2023-01-17T00:54:36.889Z,974.59
2023-01-17T00:55:36.705Z,974.54
2023-01-17T00:56:36.703Z,974.55
2023-01-17T00:57:37.126Z,974.55
2023-01-17T00:58:36.717Z,974.53
2023-01-17T00:59:36.919Z,974.51
2023-01-17T01:00:37.808Z,974.47
2023-01-17T01:01:36.834Z,974.51
2023-01-17T01:02:36.718Z,974.48
2023-01-17T01:03:36.547Z,974.46
2023-01-17T01:04:36.743Z,974.49
2023-01-17T01:05:36.695Z,974.48
2023-01-17T01:06:36.581Z,974.50
2023-01-17T01:07:36.556Z,974.51
2023-01-17T01:08:36.596Z,974.52
2023-01-17T01:09:36.580Z,974.48
2023-01-17T01:10:36.482Z,974.51
2023-01-17T01:11:36.507Z,974.47
2023-01-17T01:12:37.111Z,974.48
2023-01-17T01:13:36.530Z,974.49
2023-01-17T01:14:36.532Z,974.51
2023-01-17T01:15:36.449Z,974.49
2023-01-17T01:16:41.888Z,974.49
2023-01-17T01:17:36.471Z,974.48
2023-01-17T01:18:36.570Z,974.47
2023-01-17T01:19:36.358Z,974.49
2023-01-17T01:20:36.527Z,974.43
2023-01-17T01:21:36.687Z,974.44
2023-01-17T01:22:36.452Z,974.46
2023-01-17T01:23:36.903Z,974.42
2023-01-17T01:24:38.553Z,974.39
2023-01-17T01:25:36.286Z,974.37
2023-01-17T01:26:36.300Z,974.36
2023-01-17T01:27:36.412Z,974.37
2023-01-17T01:28:36.344Z,974.34
2023-01-17T01:29:36.216Z,974.38
2023-01-17T01:30:36.335Z,974.37
2023-01-17T01:31:36.319Z,974.36
2023-01-17T01:32:36.358Z,974.36
2023-01-17T01:33:37.557Z,974.34
2023-01-17T01:34:36.147Z,974.37
2023-01-17T01:35:36.249Z,974.39
2023-01-17T01:36:36.151Z,974.35
2023-01-17T01:37:36.061Z,974.36
2023-01-17T01:38:36.181Z,974.40
2023-01-17T01:39:36.098Z,974.39
2023-01-17T01:40:36.220Z,974.33
2023-01-17T01:41:36.101Z,974.33
2023-01-17T01:42:36.010Z,974.30
2023-01-17T01:43:36.229Z,974.34
2023-01-17T01:44:36.011Z,974.34
2023-01-17T01:45:36.156Z,974.29
2023-01-17T01:46:35.968Z,974.25
2023-01-17T01:47:35.952Z,974.28
2023-01-17T01:48:36.130Z,974.29
2023-01-17T01:49:36.072Z,974.27
2023-01-17T01:50:35.957Z,974.30
2023-01-17T01:51:35.867Z,974.29
2023-01-17T01:52:35.985Z,974.24
2023-01-17T01:53:36.988Z,974.22
2023-01-17T01:54:35.889Z,974.25
2023-01-17T01:55:35.918Z,974.26
2023-01-17T01:56:35.815Z,974.23
2023-01-17T01:57:35.892Z,974.25
2023-01-17T01:58:56.896Z,974.24
2023-01-17T01:59:35.910Z,974.21
2023-01-17T02:00:35.986Z,974.25
2023-01-17T02:01:36.029Z,974.19
2023-01-17T02:02:36.300Z,974.19
2023-01-17T02:03:36.418Z,974.22
2023-01-17T02:04:35.833Z,974.22
2023-01-17T02:05:35.990Z,974.22
2023-01-17T02:06:35.792Z,974.23
2023-01-17T02:07:35.604Z,974.22
2023-01-17T02:08:35.790Z,974.22
2023-01-17T02:09:35.672Z,974.25
2023-01-17T02:10:35.603Z,974.25
2023-01-17T02:11:35.720Z,974.27
2023-01-17T02:12:35.619Z,974.32
2023-01-17T02:13:35.690Z,974.30
2023-01-17T02:14:35.734Z,974.31
2023-01-17T02:15:35.603Z,974.31
2023-01-17T02:16:35.650Z,974.21
2023-01-17T02:17:36.164Z,974.26
2023-01-17T02:18:35.558Z,974.33
2023-01-17T02:19:35.576Z,974.29
2023-01-17T02:20:35.588Z,974.29
2023-01-17T02:21:35.655Z,974.24
2023-01-17T02:22:35.665Z,974.29
2023-01-17T02:23:35.478Z,974.20
2023-01-17T02:24:35.776Z,974.19
2023-01-17T02:25:35.487Z,974.17
2023-01-17T02:26:35.392Z,974.14
2023-01-17T02:27:35.922Z,974.14
2023-01-17T02:28:35.336Z,974.19
2023-01-17T02:29:35.607Z,974.10
2023-01-17T02:30:35.446Z,974.10
2023-01-17T02:31:35.373Z,974.12
2023-01-17T02:32:35.326Z,974.12
2023-01-17T02:33:35.365Z,974.08
2023-01-17T02:34:35.259Z,974.10
2023-01-17T02:35:35.390Z,974.10
2023-01-17T02:36:35.366Z,974.09
2023-01-17T02:37:35.355Z,974.10
2023-01-17T02:38:40.588Z,974.09
2023-01-17T02:39:35.188Z,974.12
2023-01-17T02:40:35.622Z,974.08
2023-01-17T02:41:35.276Z,974.08
2023-01-17T02:42:35.201Z,974.08
2023-01-17T02:43:35.141Z,974.10
2023-01-17T02:44:35.211Z,974.06
2023-01-17T02:45:35.247Z,974.05
2023-01-17T02:46:35.157Z,974.05
2023-01-17T02:47:35.138Z,974.08
2023-01-17T02:48:35.171Z,974.11
2023-01-17T02:49:35.150Z,974.08
2023-01-17T02:50:35.186Z,974.10
2023-01-17T02:51:35.073Z,974.11
2023-01-17T02:52:35.046Z,974.09
2023-01-17T02:53:35.063Z,974.09
2023-01-17T02:54:35.001Z,974.09
2023-01-17T02:55:35.009Z,974.08
2023-01-17T02:56:35.014Z,974.14
2023-01-17T02:57:35.114Z,974.10
2023-01-17T02:58:35.187Z,974.10
2023-01-17T02:59:35.134Z,974.08
2023-01-17T03:00:35.022Z,974.09
2023-01-17T03:01:35.205Z,974.11
2023-01-17T03:02:35.015Z,974.12
2023-01-17T03:03:34.934Z,974.16
2023-01-17T03:04:34.962Z,974.11
2023-01-17T03:05:34.961Z,974.12
2023-01-17T03:06:34.873Z,974.18
2023-01-17T03:07:34.876Z,974.17
2023-01-17T03:08:34.879Z,974.15
2023-01-17T03:09:34.986Z,974.19
2023-01-17T03:10:34.781Z,974.20
2023-01-17T03:11:34.931Z,974.17
2023-01-17T03:12:34.797Z,974.22
2023-01-17T03:13:34.792Z,974.17
2023-01-17T03:14:34.714Z,974.23
2023-01-17T03:15:34.728Z,974.20
2023-01-17T03:16:35.739Z,974.21
2023-01-17T03:17:34.660Z,974.21
2023-01-17T03:18:34.829Z,974.23
2023-01-17T03:19:34.740Z,974.21
2023-01-17T03:20:34.762Z,974.23
2023-01-17T03:21:34.660Z,974.21
2023-01-17T03:22:34.684Z,974.23
2023-01-17T03:23:35.816Z,974.22
2023-01-17T03:24:35.299Z,974.23
2023-01-17T03:25:34.915Z,974.24
2023-01-17T03:26:34.686Z,974.23
2023-01-17T03:27:34.716Z,974.24
2023-01-17T03:28:34.534Z,974.26
2023-01-17T03:29:34.501Z,974.24
2023-01-17T03:30:34.725Z,974.28
2023-01-17T03:31:34.515Z,974.25
2023-01-17T03:32:34.460Z,974.34
2023-01-17T03:33:34.526Z,974.32
2023-01-17T03:34:34.520Z,974.28
2023-01-17T03:35:34.631Z,974.24
2023-01-17T03:36:35.062Z,974.26
2023-01-17T03:37:34.487Z,974.24
2023-01-17T03:38:34.367Z,974.26
2023-01-17T03:39:34.464Z,974.24
2023-01-17T03:40:34.714Z,974.25
2023-01-17T03:41:34.397Z,974.27
2023-01-17T03:42:34.533Z,974.29
2023-01-17T03:43:34.438Z,974.31
2023-01-17T03:44:34.511Z,974.28
2023-01-17T03:45:34.377Z,974.28
2023-01-17T03:46:34.373Z,974.32
2023-01-17T03:47:34.423Z,974.35
2023-01-17T03:48:34.568Z,974.27
2023-01-17T03:49:34.247Z,974.34
2023-01-17T03:50:35.374Z,974.32
2023-01-17T03:51:35.188Z,974.34
2023-01-17T03:52:34.276Z,974.29
2023-01-17T03:53:34.176Z,974.34
2023-01-17T03:54:34.369Z,974.31
2023-01-17T03:55:34.112Z,974.36
2023-01-17T03:56:34.193Z,974.35
2023-01-17T03:57:34.182Z,974.40
2023-01-17T03:58:36.338Z,974.41
2023-01-17T03:59:34.127Z,974.41
2023-01-17T04:00:34.203Z,974.41
2023-01-17T04:01:34.192Z,974.43
2023-01-17T04:02:34.119Z,974.42
2023-01-17T04:03:34.250Z,974.42
2023-01-17T04:04:34.162Z,974.38
2023-01-17T04:05:35.460Z,974.42
2023-01-17T04:06:34.072Z,974.43
2023-01-17T04:07:34.060Z,974.46
2023-01-17T04:08:34.108Z,974.46
2023-01-17T04:09:34.003Z,974.45
2023-01-17T04:10:34.082Z,974.44
2023-01-17T04:11:33.996Z,974.53
2023-01-17T04:12:33.996Z,974.49
2023-01-17T04:13:34.002Z,974.54
2023-01-17T04:14:34.527Z,974.52
2023-01-17T04:15:33.917Z,974.55
2023-01-17T04:16:33.957Z,974.55
2023-01-17T04:17:33.914Z,974.61
2023-01-17T04:18:33.855Z,974.61
2023-01-17T04:19:33.856Z,974.67
2023-01-17T04:20:33.829Z,974.67
2023-01-17T04:21:33.761Z,974.69
2023-01-17T04:22:33.867Z,974.70
2023-01-17T04:23:34.715Z,974.80
2023-01-17T04:24:33.776Z,974.77
2023-01-17T04:25:33.875Z,974.84
2023-01-17T04:26:33.721Z,974.85
2023-01-17T04:27:33.810Z,974.87
2023-01-17T04:28:33.820Z,974.93
2023-01-17T04:29:33.635Z,974.94
2023-01-17T04:30:33.832Z,974.96
2023-01-17T04:31:33.651Z,974.98
2023-01-17T04:32:33.653Z,975.03
2023-01-17T04:33:34.129Z,975.04
2023-01-17T04:34:33.736Z,974.99
2023-01-17T04:35:33.666Z,975.02
2023-01-17T04:36:33.750Z,975.01
2023-01-17T04:37:33.561Z,975.01
2023-01-17T04:38:33.669Z,975.04
2023-01-17T04:39:33.587Z,975.03
2023-01-17T04:40:34.086Z,975.06
2023-01-17T04:41:33.599Z,974.98
2023-01-17T04:42:33.489Z,974.99
2023-01-17T04:43:33.501Z,974.98
2023-01-17T04:44:33.505Z,975.00
2023-01-17T04:45:36.361Z,974.98
2023-01-17T04:46:33.423Z,974.99
2023-01-17T04:47:33.638Z,975.02
2023-01-17T04:48:33.691Z,975.04
2023-01-17T04:49:33.435Z,975.04
2023-01-17T04:50:33.465Z,975.03
2023-01-17T04:51:33.452Z,975.03
2023-01-17T04:52:33.369Z,974.98
2023-01-17T04:53:33.376Z,975.07
2023-01-17T04:54:34.081Z,975.04
2023-01-17T04:55:33.411Z,975.05
2023-01-17T04:56:33.471Z,975.06
2023-01-17T04:57:33.918Z,975.08
2023-01-17T04:58:33.319Z,975.12
2023-01-17T04:59:33.407Z,975.07
2023-01-17T05:00:33.312Z,975.05
2023-01-17T05:01:33.410Z,975.08
2023-01-17T05:02:33.418Z,975.05
2023-01-17T05:03:33.244Z,975.12
2023-01-17T05:04:33.228Z,975.11
2023-01-17T05:05:33.153Z,975.07
2023-01-17T05:06:33.162Z,975.02
2023-01-17T05:07:35.659Z,975.10
2023-01-17T05:08:33.182Z,975.09
2023-01-17T05:09:33.386Z,975.08
2023-01-17T05:10:33.171Z,975.07
2023-01-17T05:11:33.108Z,975.06
2023-01-17T05:12:33.524Z,975.06
2023-01-17T05:13:33.617Z,975.09
2023-01-17T05:14:33.121Z,975.04
2023-01-17T05:15:33.160Z,975.04
2023-01-17T05:16:33.017Z,975.08
2023-01-17T05:17:33.155Z,975.07
2023-01-17T05:18:33.638Z,975.10
2023-01-17T05:19:33.020Z,975.10
2023-01-17T05:20:33.072Z,975.15
2023-01-17T05:21:32.958Z,975.19
2023-01-17T05:22:33.420Z,975.21
2023-01-17T05:23:33.535Z,975.23
2023-01-17T05:24:33.240Z,975.21
2023-01-17T05:25:33.171Z,975.20
2023-01-17T05:26:32.824Z,975.20
2023-01-17T05:27:32.949Z,975.17
2023-01-17T05:28:33.008Z,975.19
2023-01-17T05:29:33.233Z,975.21
2023-01-17T05:30:33.345Z,975.20
2023-01-17T05:31:32.933Z,975.29
2023-01-17T05:32:32.746Z,975.25
2023-01-17T05:33:32.954Z,975.25
2023-01-17T05:34:32.736Z,975.22
2023-01-17T05:35:32.874Z,975.31
2023-01-17T05:36:32.784Z,975.26
2023-01-17T05:37:32.849Z,975.31
2023-01-17T05:38:32.731Z,975.30
2023-01-17T05:39:32.672Z,975.33
2023-01-17T05:40:32.782Z,975.37
2023-01-17T05:41:32.782Z,975.34
2023-01-17T05:42:32.778Z,975.33
2023-01-17T05:43:32.704Z,975.36
2023-01-17T05:44:32.621Z,975.44
2023-01-17T05:45:32.750Z,975.48
2023-01-17T05:46:32.875Z,975.47
2023-01-17T05:47:32.647Z,975.55
2023-01-17T05:48:32.614Z,975.57
2023-01-17T05:49:32.847Z,975.52
2023-01-17T05:50:32.549Z,975.56
2023-01-17T05:51:32.774Z,975.59
2023-01-17T05:52:32.577Z,975.61
2023-01-17T05:53:32.472Z,975.68
2023-01-17T05:54:32.484Z,975.66
2023-01-17T05:55:32.779Z,975.69
2023-01-17T05:56:32.508Z,975.68
2023-01-17T05:57:32.614Z,975.70
2023-01-17T05:58:32.393Z,975.73
2023-01-17T05:59:37.445Z,975.66
2023-01-17T06:00:33.450Z,975.72
2023-01-17T06:01:32.525Z,975.74
2023-01-17T06:02:32.457Z,975.82
2023-01-17T06:03:32.447Z,975.82
2023-01-17T06:04:32.486Z,975.93
2023-01-17T06:05:32.336Z,975.82
2023-01-17T06:06:32.577Z,975.89
2023-01-17T06:07:32.361Z,975.91
2023-01-17T06:08:32.304Z,976.02
2023-01-17T06:09:32.465Z,976.02
2023-01-17T06:10:32.422Z,976.06
2023-01-17T06:11:32.311Z,976.17
2023-01-17T06:12:32.222Z,976.08
2023-01-17T06:13:32.198Z,976.10
2023-01-17T06:14:32.214Z,976.12
2023-01-17T06:15:32.416Z,976.19
2023-01-17T06:16:32.114Z,976.21
2023-01-17T06:17:32.449Z,976.22
2023-01-17T06:18:32.149Z,976.27
2023-01-17T06:19:32.258Z,976.26
2023-01-17T06:20:32.040Z,976.33
2023-01-17T06:21:33.734Z,976.39
2023-01-17T06:22:32.172Z,976.43
2023-01-17T06:23:32.162Z,976.36
2023-01-17T06:24:32.067Z,976.39
2023-01-17T06:25:32.185Z,976.48
2023-01-17T06:26:32.268Z,976.61
2023-01-17T06:27:32.131Z,976.59
2023-01-17T06:28:32.079Z,976.68
2023-01-17T06:29:32.103Z,976.66
2023-01-17T06:30:32.326Z,976.74
2023-01-17T06:31:32.173Z,976.69
2023-01-17T06:32:32.115Z,976.76
2023-01-17T06:33:31.944Z,976.81
2023-01-17T06:34:32.357Z,976.75
2023-01-17T06:35:32.071Z,976.86
2023-01-17T06:36:31.970Z,976.97
2023-01-17T06:37:32.065Z,976.88
2023-01-17T06:38:31.865Z,976.99
2023-01-17T06:39:31.970Z,976.92
2023-01-17T06:40:31.968Z,977.02
2023-01-17T06:41:31.802Z,977.05
2023-01-17T06:42:31.932Z,977.08
2023-01-17T06:43:31.898Z,977.05
2023-01-17T06:44:31.795Z,977.11
2023-01-17T06:45:31.848Z,977.21
2023-01-17T06:46:31.772Z,977.28
2023-01-17T06:47:31.906Z,977.20
2023-01-17T06:48:31.878Z,977.29
2023-01-17T06:49:31.919Z,977.27
2023-01-17T06:50:31.847Z,977.21
2023-01-17T06:51:31.678Z,977.28
2023-01-17T06:52:31.745Z,977.32
2023-01-17T06:53:31.657Z,977.37
2023-01-17T06:54:31.777Z,977.42
2023-01-17T06:55:31.587Z,977.52
2023-01-17T06:56:31.618Z,977.47
2023-01-17T06:57:31.678Z,977.52
2023-01-17T06:58:31.622Z,977.58
2023-01-17T06:59:31.685Z,977.63
2023-01-17T07:00:31.654Z,977.75
2023-01-17T07:01:31.698Z,977.66
2023-01-17T07:02:31.549Z,977.70
2023-01-17T07:03:31.758Z,977.74
2023-01-17T07:04:31.657Z,977.77
2023-01-17T07:05:31.533Z,977.80
2023-01-17T07:06:31.461Z,977.73
2023-01-17T07:07:33.684Z,977.94
2023-01-17T07:08:31.447Z,977.95
2023-01-17T07:09:31.499Z,977.94
2023-01-17T07:10:31.612Z,977.98
2023-01-17T07:11:31.481Z,977.97
2023-01-17T07:12:31.393Z,978.07
2023-01-17T07:13:31.390Z,978.10
2023-01-17T07:14:31.508Z,978.13
2023-01-17T07:15:31.389Z,978.15
2023-01-17T07:16:31.365Z,978.23
2023-01-17T07:17:31.233Z,978.22
2023-01-17T07:18:31.331Z,978.29
2023-01-17T07:19:31.339Z,978.34
2023-01-17T07:20:31.328Z,978.34
2023-01-17T07:21:33.488Z,978.37
2023-01-17T07:22:31.379Z,978.35
2023-01-17T07:23:31.276Z,978.40
2023-01-17T07:24:31.168Z,978.44
2023-01-17T07:25:31.163Z,978.46
2023-01-17T07:26:31.306Z,978.46
2023-01-17T07:27:31.208Z,978.48
2023-01-17T07:28:31.211Z,978.60
2023-01-17T07:29:31.204Z,978.63
2023-01-17T07:30:31.161Z,978.67
2023-01-17T07:31:31.239Z,978.65
2023-01-17T07:32:31.144Z,978.66
2023-01-17T07:33:31.109Z,978.70
2023-01-17T07:34:31.231Z,978.70
2023-01-17T07:35:31.034Z,978.71
2023-01-17T07:36:31.138Z,978.73
2023-01-17T07:37:30.977Z,978.77
2023-01-17T07:38:32.087Z,978.73
2023-01-17T07:39:31.187Z,978.77
2023-01-17T07:40:32.239Z,978.79
2023-01-17T07:41:31.059Z,978.76
2023-01-17T07:42:31.018Z,978.78
2023-01-17T07:43:31.003Z,978.81
2023-01-17T07:44:31.078Z,978.77
2023-01-17T07:45:31.006Z,978.68
2023-01-17T07:46:30.973Z,978.87
2023-01-17T07:47:31.124Z,978.88
2023-01-17T07:48:30.852Z,978.84
2023-01-17T07:49:30.926Z,978.89
2023-01-17T07:50:30.827Z,978.94
2023-01-17T07:51:30.854Z,978.92
2023-01-17T07:52:30.875Z,978.97
2023-01-17T07:53:30.878Z,979.00
2023-01-17T07:54:30.859Z,979.03
2023-01-17T07:55:30.764Z,979.06
2023-01-17T07:56:30.872Z,979.08
2023-01-17T07:57:30.795Z,979.09
2023-01-17T07:58:30.784Z,979.13
2023-01-17T07:59:30.700Z,979.16
2023-01-17T08:00:30.820Z,979.14
2023-01-17T08:01:30.807Z,979.18
2023-01-17T08:02:30.740Z,979.20
2023-01-17T08:03:30.696Z,979.19
2023-01-17T08:04:30.730Z,979.29
2023-01-17T08:05:30.798Z,979.20
2023-01-17T08:06:30.629Z,979.26
2023-01-17T08:07:30.646Z,979.28
2023-01-17T08:08:30.579Z,979.28
2023-01-17T08:09:30.557Z,979.30
2023-01-17T08:10:30.659Z,979.35
2023-01-17T08:11:31.704Z,979.42
2023-01-17T08:12:30.478Z,979.33
2023-01-17T08:13:30.593Z,979.43
2023-01-17T08:14:30.397Z,979.40
2023-01-17T08:15:30.600Z,979.39
2023-01-17T08:16:30.483Z,979.42
2023-01-17T08:17:30.509Z,979.49
2023-01-17T08:18:30.543Z,979.46
2023-01-17T08:19:30.871Z,979.42
2023-01-17T08:20:30.352Z,979.49
2023-01-17T08:21:30.646Z,979.46
2023-01-17T08:22:30.341Z,979.54
2023-01-17T08:23:30.380Z,979.50
2023-01-17T08:24:30.279Z,979.60
2023-01-17T08:25:30.367Z,979.61
2023-01-17T08:26:30.273Z,979.69
2023-01-17T08:27:30.392Z,979.72
2023-01-17T08:28:30.294Z,979.79
2023-01-17T08:29:30.201Z,979.86
2023-01-17T08:30:30.192Z,979.85
2023-01-17T08:31:30.431Z,980.03
2023-01-17T08:32:30.325Z,979.97
2023-01-17T08:33:30.125Z,979.92
2023-01-17T08:34:30.215Z,979.88
2023-01-17T08:35:30.131Z,980.07
2023-01-17T08:36:30.137Z,980.01
2023-01-17T08:37:30.060Z,979.98
2023-01-17T08:38:30.153Z,980.01
2023-01-17T08:39:30.197Z,980.01
2023-01-17T08:40:30.169Z,979.99
2023-01-17T08:41:30.088Z,980.00
2023-01-17T08:42:30.033Z,980.06
2023-01-17T08:43:30.066Z,980.07
2023-01-17T08:44:30.187Z,980.08
2023-01-17T08:45:30.058Z,980.08
2023-01-17T08:46:32.079Z,980.00
2023-01-17T08:47:30.123Z,980.03
2023-01-17T08:48:30.013Z,980.06
2023-01-17T08:49:30.140Z,980.01
2023-01-17T08:50:30.033Z,980.02
2023-01-17T08:51:29.968Z,980.05
2023-01-17T08:52:30.042Z,979.97
2023-01-17T08:53:30.180Z,979.99
2023-01-17T08:54:29.976Z,980.04
2023-01-17T08:55:29.917Z,980.00
2023-01-17T08:56:29.878Z,980.03
2023-01-17T08:57:29.985Z,980.07
2023-01-17T08:58:30.806Z,980.02
2023-01-17T08:59:29.983Z,980.08
2023-01-17T09:00:29.823Z,980.06
2023-01-17T09:01:30.031Z,980.20
2023-01-17T09:02:29.930Z,980.13
2023-01-17T09:03:29.836Z,980.19
2023-01-17T09:04:29.968Z,980.16
2023-01-17T09:05:29.726Z,980.22
2023-01-17T09:06:29.930Z,980.24
2023-01-17T09:07:29.776Z,980.27
2023-01-17T09:08:30.470Z,980.26
2023-01-17T09:09:29.871Z,980.29
2023-01-17T09:10:29.591Z,980.33
2023-01-17T09:11:29.681Z,980.35
2023-01-17T09:12:29.803Z,980.34
2023-01-17T09:13:29.795Z,980.39
2023-01-17T09:14:29.673Z,980.44
2023-01-17T09:15:29.793Z,980.43
2023-01-17T09:16:29.621Z,980.45
2023-01-17T09:17:29.750Z,980.45
2023-01-17T09:18:29.599Z,980.45
2023-01-17T09:19:29.723Z,980.41
2023-01-17T09:20:29.541Z,980.49
2023-01-17T09:21:29.505Z,980.45
2023-01-17T09:22:29.626Z,980.40
2023-01-17T09:23:29.459Z,980.39
2023-01-17T09:24:29.860Z,980.42
2023-01-17T09:25:29.602Z,980.48
2023-01-17T09:26:29.569Z,980.51
2023-01-17T09:27:29.485Z,980.51
2023-01-17T09:28:29.527Z,980.53
2023-01-17T09:29:29.485Z,980.62
2023-01-17T09:30:29.591Z,980.57
2023-01-17T09:31:29.418Z,980.61
2023-01-17T09:32:29.620Z,980.63
2023-01-17T09:33:29.541Z,980.69
2023-01-17T09:34:29.458Z,980.66
2023-01-17T09:35:29.339Z,980.68
2023-01-17T09:36:29.378Z,980.70
2023-01-17T09:37:29.331Z,980.79
2023-01-17T09:38:29.363Z,980.82
2023-01-17T09:39:29.303Z,980.85
2023-01-17T09:40:29.373Z,980.83
2023-01-17T09:41:29.209Z,980.90
2023-01-17T09:42:29.280Z,980.94
2023-01-17T09:43:29.214Z,980.88
2023-01-17T09:44:29.207Z,980.96
2023-01-17T09:45:29.341Z,980.94
2023-01-17T09:46:29.346Z,981.05
2023-01-17T09:47:29.233Z,981.05
2023-01-17T09:48:29.327Z,981.10
2023-01-17T09:49:31.783Z,981.17
2023-01-17T09:50:29.123Z,981.06
2023-01-17T09:51:29.571Z,981.15
2023-01-17T09:52:29.171Z,981.16
2023-01-17T09:53:29.058Z,981.15
2023-01-17T09:54:28.979Z,981.13
2023-01-17T09:55:28.844Z,981.23
2023-01-17T09:56:29.280Z,981.20
2023-01-17T09:57:29.207Z,981.16
2023-01-17T09:58:29.588Z,981.23
2023-01-17T09:59:33.105Z,981.23
2023-01-17T10:00:29.958Z,981.25
2023-01-17T10:01:28.951Z,981.28
2023-01-17T10:02:29.464Z,981.27
2023-01-17T10:03:30.379Z,981.32
2023-01-17T10:04:28.815Z,981.30
2023-01-17T10:05:29.148Z,981.35
2023-01-17T10:06:29.055Z,981.37
2023-01-17T10:07:28.844Z,981.36
2023-01-17T10:08:28.776Z,981.46
2023-01-17T10:09:28.765Z,981.43
2023-01-17T10:10:29.275Z,981.45
2023-01-17T10:11:28.959Z,981.42
2023-01-17T10:12:29.000Z,981.46
2023-01-17T10:13:28.705Z,981.45
2023-01-17T10:14:28.914Z,981.43
2023-01-17T10:15:28.718Z,981.48
2023-01-17T10:16:28.706Z,981.50
2023-01-17T10:17:28.816Z,981.47
2023-01-17T10:18:30.481Z,981.51
2023-01-17T10:19:29.144Z,981.44
2023-01-17T10:20:28.736Z,981.46
2023-01-17T10:21:28.722Z,981.42
2023-01-17T10:22:28.663Z,981.47
2023-01-17T10:23:28.741Z,981.49
2023-01-17T10:24:28.993Z,981.46
2023-01-17T10:25:28.572Z,981.47
2023-01-17T10:26:28.565Z,981.44
2023-01-17T10:27:28.702Z,981.50
2023-01-17T10:28:28.982Z,981.50
2023-01-17T10:29:28.722Z,981.49
2023-01-17T10:30:28.716Z,981.53
2023-01-17T10:31:28.514Z,981.57
2023-01-17T10:32:28.412Z,981.58
2023-01-17T10:33:29.407Z,981.58
2023-01-17T10:34:28.387Z,981.57
2023-01-17T10:35:28.460Z,981.61
2023-01-17T10:36:28.532Z,981.50
2023-01-17T10:37:28.459Z,981.56
2023-01-17T10:38:28.385Z,981.64
2023-01-17T10:39:28.456Z,981.66
2023-01-17T10:40:28.656Z,981.62
2023-01-17T10:41:28.366Z,981.60
2023-01-17T10:42:28.383Z,981.57
2023-01-17T10:43:28.284Z,981.63
2023-01-17T10:44:28.376Z,981.67
2023-01-17T10:45:28.378Z,981.66
2023-01-17T10:46:28.472Z,981.63
2023-01-17T10:47:28.288Z,981.61
2023-01-17T10:48:28.332Z,981.59
2023-01-17T10:49:28.206Z,981.65
2023-01-17T10:50:28.227Z,981.62
2023-01-17T10:51:28.114Z,981.62
2023-01-17T10:52:28.043Z,981.59
2023-01-17T10:53:28.969Z,981.65
2023-01-17T10:54:28.056Z,981.65
2023-01-17T10:55:28.140Z,981.64
2023-01-17T10:56:28.052Z,981.62
2023-01-17T10:57:28.173Z,981.64
2023-01-17T10:58:28.088Z,981.74
2023-01-17T10:59:28.088Z,981.75
2023-01-17T11:00:28.110Z,981.72
2023-01-17T11:01:28.141Z,981.75
2023-01-17T11:02:28.226Z,981.85
2023-01-17T11:03:28.797Z,981.81
2023-01-17T11:04:28.120Z,981.79
2023-01-17T11:05:28.110Z,981.79
2023-01-17T11:06:28.044Z,981.80
2023-01-17T11:07:27.843Z,981.87
2023-01-17T11:08:27.934Z,981.84
2023-01-17T11:09:28.857Z,981.86
2023-01-17T11:10:27.851Z,981.87
2023-01-17T11:11:27.774Z,981.89
2023-01-17T11:12:27.868Z,981.88
2023-01-17T11:13:27.874Z,981.89
2023-01-17T11:14:27.997Z,981.89
2023-01-17T11:15:27.924Z,981.89
2023-01-17T11:16:28.639Z,981.90
2023-01-17T11:17:28.043Z,981.94
2023-01-17T11:18:27.947Z,981.96
2023-01-17T11:19:27.742Z,981.99
2023-01-17T11:20:27.808Z,981.94
2023-01-17T11:21:27.722Z,981.92
2023-01-17T11:22:27.735Z,981.99
2023-01-17T11:23:28.066Z,982.07
2023-01-17T11:24:27.732Z,982.02
2023-01-17T11:25:27.897Z,981.95
2023-01-17T11:26:27.679Z,982.00
2023-01-17T11:27:27.794Z,982.03
2023-01-17T11:28:27.772Z,982.03
2023-01-17T11:29:27.805Z,982.09
2023-01-17T11:30:27.690Z,981.94
2023-01-17T11:31:27.836Z,981.97
2023-01-17T11:32:27.686Z,982.00
2023-01-17T11:33:28.847Z,982.01
2023-01-17T11:34:27.630Z,982.02
2023-01-17T11:35:27.620Z,982.04
2023-01-17T11:36:27.834Z,982.07
2023-01-17T11:37:27.855Z,982.01
2023-01-17T11:38:27.629Z,982.05
2023-01-17T11:39:27.812Z,982.08
2023-01-17T11:40:27.648Z,982.01
2023-01-17T11:41:28.323Z,982.05
2023-01-17T11:42:27.668Z,982.08
2023-01-17T11:43:27.693Z,982.06
2023-01-17T11:44:27.711Z,982.03
2023-01-17T11:45:27.515Z,982.04
2023-01-17T11:46:27.838Z,982.07
2023-01-17T11:47:27.499Z,982.09
2023-01-17T11:48:27.515Z,982.13
2023-01-17T11:49:27.425Z,982.01
2023-01-17T11:50:27.420Z,982.12
2023-01-17T11:51:27.921Z,982.14
2023-01-17T11:52:27.472Z,982.13
2023-01-17T11:53:27.345Z,982.08
2023-01-17T11:54:27.446Z,982.13
2023-01-17T11:55:27.354Z,982.14
2023-01-17T11:56:27.582Z,982.17
2023-01-17T11:57:27.390Z,982.14
2023-01-17T11:58:27.396Z,982.11
2023-01-17T11:59:27.297Z,982.13
2023-01-17T12:00:27.407Z,982.15
2023-01-17T12:01:27.521Z,982.17
2023-01-17T12:02:27.317Z,982.23
2023-01-17T12:03:27.254Z,982.25
2023-01-17T12:04:27.296Z,982.27
2023-01-17T12:05:27.238Z,982.30
2023-01-17T12:06:27.215Z,982.27
2023-01-17T12:07:27.251Z,982.29
2023-01-17T12:08:27.254Z,982.28
2023-01-17T12:09:27.149Z,982.33
2023-01-17T12:10:27.168Z,982.29
2023-01-17T12:11:27.456Z,982.29
2023-01-17T12:12:27.081Z,982.32
2023-01-17T12:13:27.205Z,982.36
2023-01-17T12:14:27.285Z,982.34
2023-01-17T12:15:27.097Z,982.35
2023-01-17T12:16:27.015Z,982.37
2023-01-17T12:17:27.112Z,982.47
2023-01-17T12:18:27.108Z,982.38
2023-01-17T12:19:27.012Z,982.39
2023-01-17T12:20:27.227Z,982.40
2023-01-17T12:21:27.030Z,982.36
2023-01-17T12:22:27.030Z,982.37
2023-01-17T12:23:27.048Z,982.40
2023-01-17T12:24:26.941Z,982.43
2023-01-17T12:25:27.971Z,982.41
2023-01-17T12:26:26.987Z,982.47
2023-01-17T12:27:26.866Z,982.44
2023-01-17T12:28:27.373Z,982.49